sensor_id;sensor_type;location;lat;lon;timestamp;P1;durP1;ratioP1;P2;durP2;ratioP2
63606;SDS011;71992;52.478;-1.918;2023-09-12T00:00:29;3.03;;;1.70;;
63606;SDS011;71992;52.478;-1.918;2023-09-12T00:03:00;2.05;;;1.40;;
63606;SDS011;71992;52.478;-1.918;2023-09-12T00:05:33;3.15;;;1.38;;
63606;SDS011;71992;52.478;-1.918;2023-09-12T00:08:05;3.75;;;1.55;;
63606;SDS011;71992;52.478;-1.918;2023-09-12T00:10:36;2.53;;;1.30;;
63606;SDS011;71992;52.478;-1.918;2023-09-12T00:13:11;2.40;;;1.23;;
63606;SDS011;71992;52.478;-1.918;2023-09-12T00:15:42;1.63;;;1.40;;
63606;SDS011;71992;52.478;-1.918;2023-09-12T00:18:12;2.55;;;1.30;;
63606;SDS011;71992;52.478;-1.918;2023-09-12T00:20:46;1.85;;;1.30;;
63606;SDS011;71992;52.478;-1.918;2023-09-12T00:23:17;2.67;;;1.45;;
63606;SDS011;71992;52.478;-1.918;2023-09-12T00:25:49;2.58;;;1.08;;
63606;SDS011;71992;52.478;-1.918;2023-09-12T00:28:20;1.20;;;0.98;;
63606;SDS011;71992;52.478;-1.918;2023-09-12T00:30:51;1.98;;;1.17;;
63606;SDS011;71992;52.478;-1.918;2023-09-12T00:33:22;3.33;;;1.38;;
63606;SDS011;71992;52.478;-1.918;2023-09-12T00:35:56;2.33;;;0.90;;
63606;SDS011;71992;52.478;-1.918;2023-09-12T00:38:27;1.55;;;1.00;;
63606;SDS011;71992;52.478;-1.918;2023-09-12T00:40:58;4.05;;;1.33;;
63606;SDS011;71992;52.478;-1.918;2023-09-12T00:43:29;1.85;;;0.80;;
63606;SDS011;71992;52.478;-1.918;2023-09-12T00:46:00;3.28;;;1.10;;
63606;SDS011;71992;52.478;-1.918;2023-09-12T00:48:32;1.63;;;1.00;;
63606;SDS011;71992;52.478;-1.918;2023-09-12T00:51:06;1.30;;;1.05;;
63606;SDS011;71992;52.478;-1.918;2023-09-12T00:53:37;1.73;;;0.93;;
63606;SDS011;71992;52.478;-1.918;2023-09-12T00:56:08;1.65;;;0.98;;
63606;SDS011;71992;52.478;-1.918;2023-09-12T00:58:40;1.88;;;1.00;;
63606;SDS011;71992;52.478;-1.918;2023-09-12T01:01:11;1.83;;;0.93;;
63606;SDS011;71992;52.478;-1.918;2023-09-12T01:03:42;1.65;;;1.05;;
63606;SDS011;71992;52.478;-1.918;2023-09-12T01:06:16;1.40;;;0.70;;
63606;SDS011;71992;52.478;-1.918;2023-09-12T01:08:53;1.38;;;0.93;;
63606;SDS011;71992;52.478;-1.918;2023-09-12T01:11:25;2.47;;;1.27;;
63606;SDS011;71992;52.478;-1.918;2023-09-12T01:13:57;1.27;;;0.90;;
63606;SDS011;71992;52.478;-1.918;2023-09-12T01:16:28;2.20;;;0.70;;
63606;SDS011;71992;52.478;-1.918;2023-09-12T01:18:59;1.45;;;1.00;;
63606;SDS011;71992;52.478;-1.918;2023-09-12T01:27:43;1.50;;;0.88;;
63606;SDS011;71992;52.478;-1.918;2023-09-12T01:30:17;1.27;;;1.00;;
63606;SDS011;71992;52.478;-1.918;2023-09-12T01:32:50;2.45;;;0.93;;
63606;SDS011;71992;52.478;-1.918;2023-09-12T01:35:22;2.03;;;1.17;;
63606;SDS011;71992;52.478;-1.918;2023-09-12T01:37:54;1.58;;;0.82;;
63606;SDS011;71992;52.478;-1.918;2023-09-12T01:40:27;2.70;;;1.23;;
63606;SDS011;71992;52.478;-1.918;2023-09-12T01:43:06;1.10;;;0.93;;
63606;SDS011;71992;52.478;-1.918;2023-09-12T01:45:38;1.63;;;0.80;;
63606;SDS011;71992;52.478;-1.918;2023-09-12T01:48:09;2.95;;;1.27;;
63606;SDS011;71992;52.478;-1.918;2023-09-12T01:50:43;2.33;;;1.08;;
63606;SDS011;71992;52.478;-1.918;2023-09-12T01:53:15;1.60;;;1.00;;
63606;SDS011;71992;52.478;-1.918;2023-09-12T01:55:47;1.98;;;1.20;;
63606;SDS011;71992;52.478;-1.918;2023-09-12T01:58:21;1.10;;;0.98;;
63606;SDS011;71992;52.478;-1.918;2023-09-12T02:00:53;2.08;;;1.38;;
63606;SDS011;71992;52.478;-1.918;2023-09-12T02:03:24;2.05;;;0.85;;
63606;SDS011;71992;52.478;-1.918;2023-09-12T02:05:55;1.75;;;0.95;;
63606;SDS011;71992;52.478;-1.918;2023-09-12T02:08:27;1.27;;;0.95;;
63606;SDS011;71992;52.478;-1.918;2023-09-12T02:10:58;1.75;;;0.95;;
63606;SDS011;71992;52.478;-1.918;2023-09-12T02:13:32;1.30;;;0.90;;
63606;SDS011;71992;52.478;-1.918;2023-09-12T02:16:03;2.13;;;1.38;;
63606;SDS011;71992;52.478;-1.918;2023-09-12T02:18:34;1.83;;;0.88;;
63606;SDS011;71992;52.478;-1.918;2023-09-12T02:21:05;2.15;;;1.10;;
63606;SDS011;71992;52.478;-1.918;2023-09-12T02:23:36;1.60;;;1.00;;
63606;SDS011;71992;52.478;-1.918;2023-09-12T02:26:07;1.88;;;1.25;;
63606;SDS011;71992;52.478;-1.918;2023-09-12T02:28:41;1.30;;;1.10;;
63606;SDS011;71992;52.478;-1.918;2023-09-12T02:31:12;1.55;;;0.85;;
63606;SDS011;71992;52.478;-1.918;2023-09-12T02:33:43;1.73;;;1.20;;
63606;SDS011;71992;52.478;-1.918;2023-09-12T02:36:15;1.80;;;1.20;;
63606;SDS011;71992;52.478;-1.918;2023-09-12T02:38:46;1.75;;;1.35;;
63606;SDS011;71992;52.478;-1.918;2023-09-12T02:41:17;1.13;;;0.90;;
63606;SDS011;71992;52.478;-1.918;2023-09-12T02:43:50;1.77;;;0.88;;
63606;SDS011;71992;52.478;-1.918;2023-09-12T02:46:21;1.67;;;1.00;;
63606;SDS011;71992;52.478;-1.918;2023-09-12T02:48:52;3.92;;;1.10;;
63606;SDS011;71992;52.478;-1.918;2023-09-12T02:51:25;2.28;;;1.27;;
63606;SDS011;71992;52.478;-1.918;2023-09-12T02:53:56;3.30;;;1.27;;
63606;SDS011;71992;52.478;-1.918;2023-09-12T02:56:27;1.60;;;1.02;;
63606;SDS011;71992;52.478;-1.918;2023-09-12T02:59:01;2.72;;;1.10;;
63606;SDS011;71992;52.478;-1.918;2023-09-12T03:01:32;2.33;;;1.13;;
63606;SDS011;71992;52.478;-1.918;2023-09-12T03:04:14;2.25;;;1.65;;
63606;SDS011;71992;52.478;-1.918;2023-09-12T03:06:46;1.98;;;1.13;;
63606;SDS011;71992;52.478;-1.918;2023-09-12T03:09:17;3.15;;;1.05;;
63606;SDS011;71992;52.478;-1.918;2023-09-12T03:11:48;2.30;;;0.90;;
63606;SDS011;71992;52.478;-1.918;2023-09-12T03:14:22;1.30;;;0.90;;
63606;SDS011;71992;52.478;-1.918;2023-09-12T03:16:53;1.58;;;0.88;;
63606;SDS011;71992;52.478;-1.918;2023-09-12T03:19:23;1.65;;;1.15;;
63606;SDS011;71992;52.478;-1.918;2023-09-12T03:21:54;1.05;;;0.75;;
63606;SDS011;71992;52.478;-1.918;2023-09-12T03:24:25;1.73;;;0.88;;
63606;SDS011;71992;52.478;-1.918;2023-09-12T03:26:56;1.80;;;0.70;;
63606;SDS011;71992;52.478;-1.918;2023-09-12T03:29:30;1.85;;;0.75;;
63606;SDS011;71992;52.478;-1.918;2023-09-12T03:32:01;1.52;;;0.80;;
63606;SDS011;71992;52.478;-1.918;2023-09-12T03:34:32;1.33;;;0.82;;
63606;SDS011;71992;52.478;-1.918;2023-09-12T03:37:03;0.80;;;0.60;;
63606;SDS011;71992;52.478;-1.918;2023-09-12T03:39:35;1.42;;;0.80;;
63606;SDS011;71992;52.478;-1.918;2023-09-12T03:42:07;1.45;;;0.90;;
63606;SDS011;71992;52.478;-1.918;2023-09-12T03:44:41;1.23;;;0.80;;
63606;SDS011;71992;52.478;-1.918;2023-09-12T03:47:12;1.05;;;0.73;;
63606;SDS011;71992;52.478;-1.918;2023-09-12T03:49:43;1.33;;;0.93;;
63606;SDS011;71992;52.478;-1.918;2023-09-12T03:52:14;0.98;;;0.70;;
63606;SDS011;71992;52.478;-1.918;2023-09-12T03:54:45;1.77;;;1.02;;
63606;SDS011;71992;52.478;-1.918;2023-09-12T03:57:16;0.90;;;0.65;;
63606;SDS011;71992;52.478;-1.918;2023-09-12T03:59:50;1.33;;;0.90;;
63606;SDS011;71992;52.478;-1.918;2023-09-12T04:02:21;1.05;;;0.73;;
63606;SDS011;71992;52.478;-1.918;2023-09-12T04:04:52;1.45;;;1.05;;
63606;SDS011;71992;52.478;-1.918;2023-09-12T04:07:26;2.53;;;0.95;;
63606;SDS011;71992;52.478;-1.918;2023-09-12T04:09:57;1.38;;;0.90;;
63606;SDS011;71992;52.478;-1.918;2023-09-12T04:12:28;1.17;;;0.80;;
63606;SDS011;71992;52.478;-1.918;2023-09-12T04:15:02;1.45;;;0.88;;
63606;SDS011;71992;52.478;-1.918;2023-09-12T04:17:33;1.77;;;1.13;;
63606;SDS011;71992;52.478;-1.918;2023-09-12T04:20:05;2.38;;;1.00;;
63606;SDS011;71992;52.478;-1.918;2023-09-12T04:22:42;1.35;;;0.85;;
63606;SDS011;71992;52.478;-1.918;2023-09-12T04:25:13;1.50;;;1.33;;
63606;SDS011;71992;52.478;-1.918;2023-09-12T04:27:47;1.67;;;0.70;;
63606;SDS011;71992;52.478;-1.918;2023-09-12T04:30:21;1.85;;;1.00;;
63606;SDS011;71992;52.478;-1.918;2023-09-12T04:32:52;0.90;;;0.70;;
63606;SDS011;71992;52.478;-1.918;2023-09-12T04:35:23;2.05;;;0.88;;
63606;SDS011;71992;52.478;-1.918;2023-09-12T04:37:55;1.10;;;0.82;;
63606;SDS011;71992;52.478;-1.918;2023-09-12T04:40:26;2.92;;;1.08;;
63606;SDS011;71992;52.478;-1.918;2023-09-12T04:42:57;1.60;;;0.80;;
63606;SDS011;71992;52.478;-1.918;2023-09-12T04:45:31;1.50;;;0.90;;
63606;SDS011;71992;52.478;-1.918;2023-09-12T04:48:03;1.67;;;0.98;;
63606;SDS011;71992;52.478;-1.918;2023-09-12T04:50:40;0.95;;;0.57;;
63606;SDS011;71992;52.478;-1.918;2023-09-12T04:53:11;1.52;;;0.70;;
63606;SDS011;71992;52.478;-1.918;2023-09-12T04:55:42;1.23;;;0.80;;
63606;SDS011;71992;52.478;-1.918;2023-09-12T04:58:13;2.13;;;0.93;;
63606;SDS011;71992;52.478;-1.918;2023-09-12T05:00:47;1.00;;;0.73;;
63606;SDS011;71992;52.478;-1.918;2023-09-12T05:03:18;2.42;;;0.68;;
63606;SDS011;71992;52.478;-1.918;2023-09-12T05:05:49;1.40;;;0.80;;
63606;SDS011;71992;52.478;-1.918;2023-09-12T05:08:20;1.98;;;0.93;;
63606;SDS011;71992;52.478;-1.918;2023-09-12T05:10:51;1.40;;;0.80;;
63606;SDS011;71992;52.478;-1.918;2023-09-12T05:13:22;1.30;;;0.90;;
63606;SDS011;71992;52.478;-1.918;2023-09-12T05:15:56;2.08;;;1.00;;
63606;SDS011;71992;52.478;-1.918;2023-09-12T05:18:27;2.70;;;1.10;;
63606;SDS011;71992;52.478;-1.918;2023-09-12T05:20:58;1.77;;;0.90;;
63606;SDS011;71992;52.478;-1.918;2023-09-12T05:23:29;2.10;;;1.02;;
63606;SDS011;71992;52.478;-1.918;2023-09-12T05:26:00;1.65;;;1.10;;
63606;SDS011;71992;52.478;-1.918;2023-09-12T05:28:31;1.67;;;1.02;;
63606;SDS011;71992;52.478;-1.918;2023-09-12T05:31:05;3.10;;;1.23;;
63606;SDS011;71992;52.478;-1.918;2023-09-12T05:33:37;1.40;;;0.98;;
63606;SDS011;71992;52.478;-1.918;2023-09-12T05:36:08;1.38;;;1.00;;
63606;SDS011;71992;52.478;-1.918;2023-09-12T05:38:39;2.80;;;1.13;;
63606;SDS011;71992;52.478;-1.918;2023-09-12T05:41:10;1.42;;;1.08;;
63606;SDS011;71992;52.478;-1.918;2023-09-12T05:43:41;0.93;;;0.80;;
63606;SDS011;71992;52.478;-1.918;2023-09-12T05:46:16;1.03;;;0.93;;
63606;SDS011;71992;52.478;-1.918;2023-09-12T05:48:47;2.05;;;1.50;;
63606;SDS011;71992;52.478;-1.918;2023-09-12T05:51:18;1.52;;;1.15;;
63606;SDS011;71992;52.478;-1.918;2023-09-12T05:53:50;1.33;;;1.05;;
63606;SDS011;71992;52.478;-1.918;2023-09-12T05:56:21;2.20;;;1.30;;
63606;SDS011;71992;52.478;-1.918;2023-09-12T05:58:53;1.95;;;1.00;;
63606;SDS011;71992;52.478;-1.918;2023-09-12T06:01:27;1.88;;;1.08;;
63606;SDS011;71992;52.478;-1.918;2023-09-12T06:03:58;1.58;;;1.08;;
63606;SDS011;71992;52.478;-1.918;2023-09-12T06:06:30;1.58;;;1.20;;
63606;SDS011;71992;52.478;-1.918;2023-09-12T06:09:01;1.25;;;1.10;;
63606;SDS011;71992;52.478;-1.918;2023-09-12T06:11:32;1.88;;;1.02;;
63606;SDS011;71992;52.478;-1.918;2023-09-12T06:14:03;1.52;;;1.05;;
63606;SDS011;71992;52.478;-1.918;2023-09-12T06:16:37;1.15;;;0.95;;
63606;SDS011;71992;52.478;-1.918;2023-09-12T06:19:08;1.42;;;1.08;;
63606;SDS011;71992;52.478;-1.918;2023-09-12T06:21:41;1.05;;;0.75;;
63606;SDS011;71992;52.478;-1.918;2023-09-12T06:24:13;1.00;;;0.85;;
63606;SDS011;71992;52.478;-1.918;2023-09-12T06:26:45;1.63;;;1.10;;
63606;SDS011;71992;52.478;-1.918;2023-09-12T06:29:16;1.65;;;0.90;;
63606;SDS011;71992;52.478;-1.918;2023-09-12T06:31:50;1.85;;;0.90;;
63606;SDS011;71992;52.478;-1.918;2023-09-12T06:34:22;1.52;;;0.95;;
63606;SDS011;71992;52.478;-1.918;2023-09-12T06:36:54;2.75;;;0.95;;
63606;SDS011;71992;52.478;-1.918;2023-09-12T06:39:25;1.35;;;1.00;;
63606;SDS011;71992;52.478;-1.918;2023-09-12T06:41:56;1.80;;;0.98;;
63606;SDS011;71992;52.478;-1.918;2023-09-12T06:44:27;1.70;;;0.90;;
63606;SDS011;71992;52.478;-1.918;2023-09-12T06:47:00;2.42;;;0.85;;
63606;SDS011;71992;52.478;-1.918;2023-09-12T06:49:31;1.05;;;0.80;;
63606;SDS011;71992;52.478;-1.918;2023-09-12T06:52:03;2.60;;;0.82;;
63606;SDS011;71992;52.478;-1.918;2023-09-12T06:54:36;1.40;;;0.93;;
63606;SDS011;71992;52.478;-1.918;2023-09-12T06:57:07;2.65;;;1.00;;
63606;SDS011;71992;52.478;-1.918;2023-09-12T06:59:38;2.65;;;0.90;;
63606;SDS011;71992;52.478;-1.918;2023-09-12T07:02:12;0.98;;;0.85;;
63606;SDS011;71992;52.478;-1.918;2023-09-12T07:04:43;2.58;;;0.98;;
63606;SDS011;71992;52.478;-1.918;2023-09-12T07:07:13;1.30;;;0.82;;
63606;SDS011;71992;52.478;-1.918;2023-09-12T07:09:44;1.60;;;0.90;;
63606;SDS011;71992;52.478;-1.918;2023-09-12T07:12:15;1.20;;;0.75;;
63606;SDS011;71992;52.478;-1.918;2023-09-12T07:14:47;1.65;;;0.88;;
63606;SDS011;71992;52.478;-1.918;2023-09-12T07:17:21;1.07;;;0.80;;
63606;SDS011;71992;52.478;-1.918;2023-09-12T07:19:52;1.25;;;0.90;;
63606;SDS011;71992;52.478;-1.918;2023-09-12T07:22:23;1.52;;;1.00;;
63606;SDS011;71992;52.478;-1.918;2023-09-12T07:24:54;1.25;;;0.73;;
63606;SDS011;71992;52.478;-1.918;2023-09-12T07:27:26;1.33;;;0.80;;
63606;SDS011;71992;52.478;-1.918;2023-09-12T07:29:58;0.82;;;0.63;;
63606;SDS011;71992;52.478;-1.918;2023-09-12T07:32:31;1.42;;;0.80;;
63606;SDS011;71992;52.478;-1.918;2023-09-12T07:35:02;1.42;;;1.00;;
63606;SDS011;71992;52.478;-1.918;2023-09-12T07:40:06;0.80;;;0.50;;
63606;SDS011;71992;52.478;-1.918;2023-09-12T07:42:38;1.60;;;0.77;;
63606;SDS011;71992;52.478;-1.918;2023-09-12T07:45:09;1.55;;;0.73;;
63606;SDS011;71992;52.478;-1.918;2023-09-12T07:47:45;1.20;;;0.60;;
63606;SDS011;71992;52.478;-1.918;2023-09-12T07:50:15;0.93;;;0.65;;
63606;SDS011;71992;52.478;-1.918;2023-09-12T07:52:46;2.08;;;0.70;;
63606;SDS011;71992;52.478;-1.918;2023-09-12T07:55:17;0.77;;;0.63;;
63606;SDS011;71992;52.478;-1.918;2023-09-12T07:57:48;1.00;;;0.57;;
63606;SDS011;71992;52.478;-1.918;2023-09-12T08:00:19;0.80;;;0.60;;
63606;SDS011;71992;52.478;-1.918;2023-09-12T08:02:53;0.73;;;0.65;;
63606;SDS011;71992;52.478;-1.918;2023-09-12T08:05:24;1.52;;;0.80;;
63606;SDS011;71992;52.478;-1.918;2023-09-12T08:07:54;1.00;;;0.73;;
63606;SDS011;71992;52.478;-1.918;2023-09-12T08:10:25;1.15;;;0.65;;
63606;SDS011;71992;52.478;-1.918;2023-09-12T08:12:56;0.90;;;0.70;;
63606;SDS011;71992;52.478;-1.918;2023-09-12T08:15:27;1.70;;;0.80;;
63606;SDS011;71992;52.478;-1.918;2023-09-12T08:18:01;1.00;;;0.70;;
63606;SDS011;71992;52.478;-1.918;2023-09-12T08:20:32;1.00;;;0.80;;
63606;SDS011;71992;52.478;-1.918;2023-09-12T08:23:03;1.15;;;0.70;;
63606;SDS011;71992;52.478;-1.918;2023-09-12T08:25:34;1.17;;;0.68;;
63606;SDS011;71992;52.478;-1.918;2023-09-12T08:28:06;1.65;;;0.70;;
63606;SDS011;71992;52.478;-1.918;2023-09-12T08:30:37;1.52;;;0.70;;
63606;SDS011;71992;52.478;-1.918;2023-09-12T08:33:10;1.58;;;0.77;;
63606;SDS011;71992;52.478;-1.918;2023-09-12T08:35:41;0.93;;;0.57;;
63606;SDS011;71992;52.478;-1.918;2023-09-12T08:38:12;1.45;;;0.90;;
63606;SDS011;71992;52.478;-1.918;2023-09-12T08:40:47;1.25;;;0.68;;
63606;SDS011;71992;52.478;-1.918;2023-09-12T08:43:19;0.90;;;0.65;;
63606;SDS011;71992;52.478;-1.918;2023-09-12T08:45:50;1.75;;;0.60;;
63606;SDS011;71992;52.478;-1.918;2023-09-12T08:48:24;1.80;;;0.55;;
63606;SDS011;71992;52.478;-1.918;2023-09-12T08:50:59;0.75;;;0.60;;
63606;SDS011;71992;52.478;-1.918;2023-09-12T08:53:32;1.50;;;0.73;;
63606;SDS011;71992;52.478;-1.918;2023-09-12T08:56:03;1.98;;;0.60;;
63606;SDS011;71992;52.478;-1.918;2023-09-12T08:58:34;0.75;;;0.52;;
63606;SDS011;71992;52.478;-1.918;2023-09-12T09:01:06;0.80;;;0.60;;
63606;SDS011;71992;52.478;-1.918;2023-09-12T09:03:41;0.73;;;0.60;;
63606;SDS011;71992;52.478;-1.918;2023-09-12T09:06:12;0.80;;;0.55;;
63606;SDS011;71992;52.478;-1.918;2023-09-12T09:08:45;0.90;;;0.80;;
63606;SDS011;71992;52.478;-1.918;2023-09-12T09:11:17;0.60;;;0.52;;
63606;SDS011;71992;52.478;-1.918;2023-09-12T09:13:49;0.85;;;0.50;;
63606;SDS011;71992;52.478;-1.918;2023-09-12T09:16:20;0.63;;;0.40;;
63606;SDS011;71992;52.478;-1.918;2023-09-12T09:18:54;1.00;;;0.50;;
63606;SDS011;71992;52.478;-1.918;2023-09-12T09:21:26;0.98;;;0.50;;
63606;SDS011;71992;52.478;-1.918;2023-09-12T09:24:06;1.75;;;0.60;;
63606;SDS011;71992;52.478;-1.918;2023-09-12T09:26:42;0.47;;;0.47;;
63606;SDS011;71992;52.478;-1.918;2023-09-12T09:29:14;0.80;;;0.50;;
63606;SDS011;71992;52.478;-1.918;2023-09-12T09:31:47;1.27;;;0.50;;
63606;SDS011;71992;52.478;-1.918;2023-09-12T09:34:21;0.77;;;0.55;;
63606;SDS011;71992;52.478;-1.918;2023-09-12T09:36:55;1.00;;;0.57;;
63606;SDS011;71992;52.478;-1.918;2023-09-12T09:39:27;2.17;;;0.60;;
63606;SDS011;71992;52.478;-1.918;2023-09-12T09:41:58;0.50;;;0.40;;
63606;SDS011;71992;52.478;-1.918;2023-09-12T09:44:30;1.38;;;0.63;;
63606;SDS011;71992;52.478;-1.918;2023-09-12T09:47:03;0.60;;;0.40;;
63606;SDS011;71992;52.478;-1.918;2023-09-12T09:49:37;1.20;;;0.73;;
63606;SDS011;71992;52.478;-1.918;2023-09-12T09:52:07;1.52;;;0.50;;
63606;SDS011;71992;52.478;-1.918;2023-09-12T09:54:42;1.45;;;0.50;;
63606;SDS011;71992;52.478;-1.918;2023-09-12T09:57:14;1.27;;;0.60;;
63606;SDS011;71992;52.478;-1.918;2023-09-12T09:59:48;0.85;;;0.55;;
63606;SDS011;71992;52.478;-1.918;2023-09-12T10:02:21;0.40;;;0.40;;
63606;SDS011;71992;52.478;-1.918;2023-09-12T10:04:58;1.45;;;0.50;;
63606;SDS011;71992;52.478;-1.918;2023-09-12T10:07:32;0.55;;;0.45;;
63606;SDS011;71992;52.478;-1.918;2023-09-12T10:10:03;0.80;;;0.50;;
63606;SDS011;71992;52.478;-1.918;2023-09-12T10:12:35;0.63;;;0.40;;
63606;SDS011;71992;52.478;-1.918;2023-09-12T10:15:08;0.75;;;0.45;;
63606;SDS011;71992;52.478;-1.918;2023-09-12T10:17:43;0.65;;;0.50;;
63606;SDS011;71992;52.478;-1.918;2023-09-12T10:20:24;1.38;;;0.57;;
63606;SDS011;71992;52.478;-1.918;2023-09-12T10:22:59;0.57;;;0.50;;
63606;SDS011;71992;52.478;-1.918;2023-09-12T10:25:38;0.52;;;0.40;;
63606;SDS011;71992;52.478;-1.918;2023-09-12T10:28:12;0.40;;;0.30;;
63606;SDS011;71992;52.478;-1.918;2023-09-12T10:30:44;1.33;;;0.50;;
63606;SDS011;71992;52.478;-1.918;2023-09-12T10:33:16;0.93;;;0.40;;
63606;SDS011;71992;52.478;-1.918;2023-09-12T10:35:50;0.50;;;0.38;;
63606;SDS011;71992;52.478;-1.918;2023-09-12T10:38:24;0.98;;;0.50;;
63606;SDS011;71992;52.478;-1.918;2023-09-12T10:40:58;0.73;;;0.43;;
63606;SDS011;71992;52.478;-1.918;2023-09-12T10:43:33;1.83;;;0.38;;
63606;SDS011;71992;52.478;-1.918;2023-09-12T10:46:05;0.60;;;0.38;;
63606;SDS011;71992;52.478;-1.918;2023-09-12T10:48:36;1.90;;;0.63;;
63606;SDS011;71992;52.478;-1.918;2023-09-12T10:51:10;0.50;;;0.40;;
63606;SDS011;71992;52.478;-1.918;2023-09-12T10:53:46;1.10;;;0.70;;
63606;SDS011;71992;52.478;-1.918;2023-09-12T10:56:20;2.00;;;1.45;;
63606;SDS011;71992;52.478;-1.918;2023-09-12T10:59:09;1.60;;;1.50;;
63606;SDS011;71992;52.478;-1.918;2023-09-12T11:01:44;3.00;;;1.77;;
63606;SDS011;71992;52.478;-1.918;2023-09-12T11:10:18;2.25;;;2.03;;
63606;SDS011;71992;52.478;-1.918;2023-09-12T11:12:52;3.40;;;2.60;;
63606;SDS011;71992;52.478;-1.918;2023-09-12T11:18:02;1.88;;;1.73;;
63606;SDS011;71992;52.478;-1.918;2023-09-12T11:20:50;2.58;;;2.25;;
63606;SDS011;71992;52.478;-1.918;2023-09-12T11:23:25;2.72;;;2.38;;
63606;SDS011;71992;52.478;-1.918;2023-09-12T11:26:03;3.22;;;2.92;;
63606;SDS011;71992;52.478;-1.918;2023-09-12T11:28:38;3.50;;;3.17;;
63606;SDS011;71992;52.478;-1.918;2023-09-12T11:31:12;2.88;;;2.58;;
63606;SDS011;71992;52.478;-1.918;2023-09-12T11:33:55;3.05;;;2.67;;
63606;SDS011;71992;52.478;-1.918;2023-09-12T11:36:37;3.53;;;2.95;;
63606;SDS011;71992;52.478;-1.918;2023-09-12T11:39:24;4.93;;;3.20;;
63606;SDS011;71992;52.478;-1.918;2023-09-12T11:41:57;3.20;;;2.65;;
63606;SDS011;71992;52.478;-1.918;2023-09-12T11:47:01;3.90;;;2.38;;
63606;SDS011;71992;52.478;-1.918;2023-09-12T11:49:37;2.83;;;2.10;;
63606;SDS011;71992;52.478;-1.918;2023-09-12T11:52:09;3.88;;;2.28;;
63606;SDS011;71992;52.478;-1.918;2023-09-12T11:54:43;2.33;;;2.03;;
63606;SDS011;71992;52.478;-1.918;2023-09-12T11:57:15;2.83;;;1.70;;
63606;SDS011;71992;52.478;-1.918;2023-09-12T11:59:46;1.77;;;1.38;;
63606;SDS011;71992;52.478;-1.918;2023-09-12T12:02:17;1.45;;;0.95;;
63606;SDS011;71992;52.478;-1.918;2023-09-12T12:04:48;1.02;;;0.70;;
63606;SDS011;71992;52.478;-1.918;2023-09-12T12:09:54;1.20;;;0.60;;
63606;SDS011;71992;52.478;-1.918;2023-09-12T12:12:26;1.20;;;0.40;;
63606;SDS011;71992;52.478;-1.918;2023-09-12T12:14:56;0.95;;;0.40;;
63606;SDS011;71992;52.478;-1.918;2023-09-12T12:17:28;0.68;;;0.38;;
63606;SDS011;71992;52.478;-1.918;2023-09-12T12:19:59;1.08;;;0.40;;
63606;SDS011;71992;52.478;-1.918;2023-09-12T12:22:34;0.95;;;0.50;;
63606;SDS011;71992;52.478;-1.918;2023-09-12T12:25:11;1.17;;;0.60;;
63606;SDS011;71992;52.478;-1.918;2023-09-12T12:27:44;1.45;;;0.50;;
63606;SDS011;71992;52.478;-1.918;2023-09-12T12:30:15;0.65;;;0.40;;
63606;SDS011;71992;52.478;-1.918;2023-09-12T12:32:46;1.52;;;0.47;;
63606;SDS011;71992;52.478;-1.918;2023-09-12T12:35:18;2.25;;;0.47;;
63606;SDS011;71992;52.478;-1.918;2023-09-12T12:37:50;0.68;;;0.47;;
63606;SDS011;71992;52.478;-1.918;2023-09-12T12:40:27;0.65;;;0.40;;
63606;SDS011;71992;52.478;-1.918;2023-09-12T12:42:58;0.55;;;0.45;;
63606;SDS011;71992;52.478;-1.918;2023-09-12T12:45:31;0.55;;;0.50;;
63606;SDS011;71992;52.478;-1.918;2023-09-12T12:48:04;0.40;;;0.40;;
63606;SDS011;71992;52.478;-1.918;2023-09-12T12:50:38;0.68;;;0.50;;
63606;SDS011;71992;52.478;-1.918;2023-09-12T12:53:13;0.32;;;0.32;;
63606;SDS011;71992;52.478;-1.918;2023-09-12T12:55:46;0.73;;;0.40;;
63606;SDS011;71992;52.478;-1.918;2023-09-12T12:58:18;1.17;;;0.50;;
63606;SDS011;71992;52.478;-1.918;2023-09-12T13:00:49;0.65;;;0.38;;
63606;SDS011;71992;52.478;-1.918;2023-09-12T13:03:20;1.58;;;0.30;;
63606;SDS011;71992;52.478;-1.918;2023-09-12T13:05:52;0.55;;;0.40;;
63606;SDS011;71992;52.478;-1.918;2023-09-12T13:08:24;0.93;;;0.32;;
63606;SDS011;71992;52.478;-1.918;2023-09-12T13:11:00;0.75;;;0.35;;
63606;SDS011;71992;52.478;-1.918;2023-09-12T13:13:31;0.30;;;0.30;;
63606;SDS011;71992;52.478;-1.918;2023-09-12T13:16:02;0.40;;;0.40;;
63606;SDS011;71992;52.478;-1.918;2023-09-12T13:18:37;0.30;;;0.30;;
63606;SDS011;71992;52.478;-1.918;2023-09-12T13:21:08;0.50;;;0.50;;
63606;SDS011;71992;52.478;-1.918;2023-09-12T13:23:39;0.80;;;0.57;;
63606;SDS011;71992;52.478;-1.918;2023-09-12T13:26:12;0.40;;;0.32;;
63606;SDS011;71992;52.478;-1.918;2023-09-12T13:28:43;0.45;;;0.40;;
63606;SDS011;71992;52.478;-1.918;2023-09-12T13:31:14;0.50;;;0.40;;
63606;SDS011;71992;52.478;-1.918;2023-09-12T13:33:45;0.85;;;0.40;;
63606;SDS011;71992;52.478;-1.918;2023-09-12T13:36:16;0.30;;;0.30;;
63606;SDS011;71992;52.478;-1.918;2023-09-12T13:38:49;0.55;;;0.50;;
63606;SDS011;71992;52.478;-1.918;2023-09-12T13:41:23;0.50;;;0.40;;
63606;SDS011;71992;52.478;-1.918;2023-09-12T13:43:55;2.83;;;1.58;;
63606;SDS011;71992;52.478;-1.918;2023-09-12T13:46:25;0.40;;;0.35;;
63606;SDS011;71992;52.478;-1.918;2023-09-12T13:48:57;0.43;;;0.30;;
63606;SDS011;71992;52.478;-1.918;2023-09-12T13:51:30;1.17;;;0.30;;
63606;SDS011;71992;52.478;-1.918;2023-09-12T13:54:01;0.32;;;0.22;;
63606;SDS011;71992;52.478;-1.918;2023-09-12T13:56:36;0.40;;;0.30;;
63606;SDS011;71992;52.478;-1.918;2023-09-12T13:59:07;0.40;;;0.20;;
63606;SDS011;71992;52.478;-1.918;2023-09-12T14:01:38;0.50;;;0.30;;
63606;SDS011;71992;52.478;-1.918;2023-09-12T14:04:09;0.68;;;0.40;;
63606;SDS011;71992;52.478;-1.918;2023-09-12T14:06:40;1.23;;;0.30;;
63606;SDS011;71992;52.478;-1.918;2023-09-12T14:09:11;1.02;;;0.30;;
63606;SDS011;71992;52.478;-1.918;2023-09-12T14:11:46;0.50;;;0.30;;
63606;SDS011;71992;52.478;-1.918;2023-09-12T14:14:17;0.30;;;0.30;;
63606;SDS011;71992;52.478;-1.918;2023-09-12T14:16:48;0.60;;;0.30;;
63606;SDS011;71992;52.478;-1.918;2023-09-12T14:19:18;0.30;;;0.30;;
63606;SDS011;71992;52.478;-1.918;2023-09-12T14:21:49;1.08;;;0.40;;
63606;SDS011;71992;52.478;-1.918;2023-09-12T14:24:20;0.50;;;0.47;;
63606;SDS011;71992;52.478;-1.918;2023-09-12T14:26:54;0.30;;;0.30;;
63606;SDS011;71992;52.478;-1.918;2023-09-12T14:29:27;1.25;;;0.52;;
63606;SDS011;71992;52.478;-1.918;2023-09-12T14:31:58;1.17;;;1.05;;
63606;SDS011;71992;52.478;-1.918;2023-09-12T14:34:29;1.20;;;0.40;;
63606;SDS011;71992;52.478;-1.918;2023-09-12T14:37:00;1.50;;;0.50;;
63606;SDS011;71992;52.478;-1.918;2023-09-12T14:39:33;0.50;;;0.50;;
63606;SDS011;71992;52.478;-1.918;2023-09-12T14:42:07;0.55;;;0.40;;
63606;SDS011;71992;52.478;-1.918;2023-09-12T14:44:39;1.55;;;0.30;;
63606;SDS011;71992;52.478;-1.918;2023-09-12T14:47:10;0.85;;;0.50;;
63606;SDS011;71992;52.478;-1.918;2023-09-12T14:49:41;0.55;;;0.40;;
63606;SDS011;71992;52.478;-1.918;2023-09-12T14:52:12;0.50;;;0.40;;
63606;SDS011;71992;52.478;-1.918;2023-09-12T14:54:43;0.20;;;0.20;;
63606;SDS011;71992;52.478;-1.918;2023-09-12T14:57:16;0.35;;;0.30;;
63606;SDS011;71992;52.478;-1.918;2023-09-12T14:59:47;0.70;;;0.40;;
63606;SDS011;71992;52.478;-1.918;2023-09-12T15:02:18;0.32;;;0.30;;
63606;SDS011;71992;52.478;-1.918;2023-09-12T15:04:49;0.45;;;0.30;;
63606;SDS011;71992;52.478;-1.918;2023-09-12T15:07:20;0.90;;;0.50;;
63606;SDS011;71992;52.478;-1.918;2023-09-12T15:09:51;0.93;;;0.22;;
63606;SDS011;71992;52.478;-1.918;2023-09-12T15:12:25;0.80;;;0.35;;
63606;SDS011;71992;52.478;-1.918;2023-09-12T15:14:56;0.73;;;0.50;;
63606;SDS011;71992;52.478;-1.918;2023-09-12T15:17:27;0.30;;;0.30;;
63606;SDS011;71992;52.478;-1.918;2023-09-12T15:19:57;0.52;;;0.40;;
63606;SDS011;71992;52.478;-1.918;2023-09-12T15:22:28;0.77;;;0.40;;
63606;SDS011;71992;52.478;-1.918;2023-09-12T15:24:59;1.05;;;0.30;;